createdAt,value
2022-08-20T00:02:16.132Z,35.85
2022-08-20T00:04:45.982Z,35.49
2022-08-20T00:07:14.307Z,36.16
2022-08-20T00:09:43.085Z,36.32
2022-08-20T00:12:11.594Z,36.36
2022-08-20T00:14:40.060Z,36.00
2022-08-20T00:17:08.360Z,36.07
2022-08-20T00:19:36.626Z,37.00
2022-08-20T00:22:06.465Z,36.61
2022-08-20T00:24:35.084Z,36.94
2022-08-20T00:27:03.577Z,36.58
2022-08-20T00:29:31.946Z,37.07
2022-08-20T00:32:00.301Z,38.74
2022-08-20T00:34:28.657Z,36.57
2022-08-20T00:36:56.863Z,37.03
2022-08-20T00:39:26.581Z,37.34
2022-08-20T00:41:55.005Z,36.99
2022-08-20T00:44:23.855Z,37.77
2022-08-20T00:46:53.146Z,37.37
2022-08-20T00:49:24.900Z,37.36
2022-08-20T00:51:55.714Z,37.90
2022-08-20T00:54:26.200Z,38.31
2022-08-20T00:56:58.136Z,37.97
2022-08-20T00:59:28.497Z,38.18
2022-08-20T01:01:57.794Z,37.66
2022-08-20T01:04:26.570Z,37.84
2022-08-20T01:06:54.851Z,37.98
2022-08-20T01:09:50.218Z,38.07
2022-08-20T01:12:14.162Z,38.00
2022-08-20T01:14:46.064Z,38.04
2022-08-20T01:17:17.969Z,37.86
2022-08-20T01:19:49.985Z,38.39
2022-08-20T01:22:39.936Z,38.61
2022-08-20T01:25:11.079Z,38.83
2022-08-20T01:27:42.714Z,38.74
2022-08-20T01:30:11.645Z,39.29
2022-08-20T01:32:39.851Z,39.04
2022-08-20T01:35:11.419Z,38.47
2022-08-20T01:37:39.674Z,38.75
2022-08-20T01:40:09.538Z,39.03
2022-08-20T01:42:52.740Z,38.48
2022-08-20T01:45:31.032Z,38.67
2022-08-20T01:47:59.385Z,38.61
2022-08-20T01:50:32.646Z,38.66
2022-08-20T01:53:05.184Z,39.06
2022-08-20T01:55:33.442Z,38.68
2022-08-20T01:58:02.362Z,38.83
2022-08-20T02:00:32.682Z,38.65
2022-08-20T02:03:00.931Z,38.42
2022-08-20T02:05:30.403Z,38.41
2022-08-20T02:07:59.178Z,39.67
2022-08-20T02:10:27.593Z,39.64
2022-08-20T02:13:00.595Z,39.68
2022-08-20T02:15:50.144Z,40.27
2022-08-20T02:18:18.434Z,40.73
2022-08-20T02:20:47.284Z,39.71
2022-08-20T02:23:16.412Z,39.12
2022-08-20T02:25:47.583Z,39.56
2022-08-20T02:28:17.247Z,40.12
2022-08-20T02:30:47.018Z,40.84
2022-08-20T02:33:17.977Z,41.25
2022-08-20T02:35:47.777Z,41.61
2022-08-20T02:38:16.925Z,41.04
2022-08-20T02:40:46.139Z,40.60
2022-08-20T02:43:14.640Z,41.89
2022-08-20T02:45:44.901Z,40.40
2022-08-20T02:48:21.449Z,37.39
2022-08-20T02:50:52.888Z,33.59
2022-08-20T02:53:21.158Z,33.05
2022-08-20T02:55:49.561Z,32.73
2022-08-20T02:58:17.846Z,32.00
2022-08-20T03:00:46.504Z,31.45
2022-08-20T03:03:15.887Z,30.92
2022-08-20T03:05:45.657Z,30.49
2022-08-20T03:08:15.979Z,30.88
2022-08-20T03:10:45.197Z,30.33
2022-08-20T03:13:13.829Z,30.55
2022-08-20T03:15:42.810Z,31.61
2022-08-20T03:18:11.500Z,31.14
2022-08-20T03:20:39.876Z,31.40
2022-08-20T03:23:08.159Z,33.97
2022-08-20T03:25:38.108Z,34.27
2022-08-20T03:28:06.838Z,38.89
2022-08-20T03:30:35.207Z,38.63
2022-08-20T03:33:03.847Z,38.02
2022-08-20T03:35:32.644Z,37.01
2022-08-20T03:38:00.876Z,36.66
2022-08-20T03:40:30.385Z,36.98
2022-08-20T03:43:00.498Z,37.54
2022-08-20T03:45:29.981Z,38.27
2022-08-20T03:47:58.614Z,37.32
2022-08-20T03:50:28.494Z,38.40
2022-08-20T03:52:57.240Z,38.32
2022-08-20T03:55:26.404Z,38.56
2022-08-20T03:57:55.579Z,39.46
2022-08-20T04:00:27.073Z,37.77
2022-08-20T04:02:57.418Z,38.60
2022-08-20T04:05:28.348Z,39.41
2022-08-20T04:08:02.937Z,39.19
2022-08-20T04:10:32.029Z,37.60
2022-08-20T04:13:00.202Z,37.84
2022-08-20T04:15:32.436Z,38.15
2022-08-20T04:18:00.711Z,37.90
2022-08-20T04:20:29.086Z,37.34
2022-08-20T04:22:59.467Z,36.68
2022-08-20T04:25:29.796Z,37.83
2022-08-20T04:27:58.800Z,36.69
2022-08-20T04:30:27.489Z,36.15
2022-08-20T04:32:57.393Z,35.16
2022-08-20T04:35:25.920Z,36.56
2022-08-20T04:37:59.676Z,35.10
2022-08-20T04:40:45.397Z,34.98
2022-08-20T04:43:13.821Z,34.10
2022-08-20T04:45:42.054Z,34.38
2022-08-20T04:48:14.974Z,33.88
2022-08-20T04:50:44.910Z,33.69
2022-08-20T04:53:14.107Z,33.98
2022-08-20T04:55:43.510Z,32.69
2022-08-20T04:58:13.562Z,33.96
2022-08-20T05:00:42.012Z,34.06
2022-08-20T05:03:12.274Z,32.33
2022-08-20T05:05:40.657Z,32.12
2022-08-20T05:08:18.759Z,31.01
2022-08-20T05:10:48.618Z,30.15
2022-08-20T05:13:17.284Z,29.99
2022-08-20T05:15:46.014Z,31.20
2022-08-20T05:18:18.737Z,30.89
2022-08-20T05:20:47.354Z,31.89
2022-08-20T05:23:16.711Z,32.68
2022-08-20T05:25:45.802Z,31.71
2022-08-20T05:28:15.176Z,31.92
2022-08-20T05:30:44.763Z,31.72
2022-08-20T05:33:19.988Z,30.72
2022-08-20T05:35:49.457Z,30.23
2022-08-20T05:38:19.456Z,31.94
2022-08-20T05:40:48.060Z,30.61
2022-08-20T05:43:16.712Z,30.32
2022-08-20T05:45:45.895Z,31.61
2022-08-20T05:48:15.044Z,32.61
2022-08-20T05:50:46.679Z,31.79
2022-08-20T05:53:14.984Z,30.64
2022-08-20T05:55:43.909Z,30.29
2022-08-20T05:58:16.585Z,30.94
2022-08-20T06:00:45.084Z,30.87
2022-08-20T06:03:31.089Z,32.35
2022-08-20T06:06:00.933Z,31.65
2022-08-20T06:08:29.213Z,31.45
2022-08-20T06:10:57.542Z,30.55
2022-08-20T06:13:26.396Z,32.95
2022-08-20T06:15:54.691Z,33.11
2022-08-20T06:18:28.295Z,31.24
2022-08-20T06:20:57.625Z,30.68
2022-08-20T06:23:27.751Z,31.03
2022-08-20T06:26:16.085Z,31.34
2022-08-20T06:28:54.114Z,30.27
2022-08-20T06:31:23.306Z,30.28
2022-08-20T06:33:51.578Z,30.24
2022-08-20T06:36:20.329Z,30.26
2022-08-20T06:38:49.978Z,32.16
2022-08-20T06:41:18.544Z,32.94
2022-08-20T06:43:46.847Z,33.69
2022-08-20T06:46:15.391Z,31.40
2022-08-20T06:48:43.652Z,31.64
2022-08-20T06:51:12.006Z,32.41
2022-08-20T06:53:40.223Z,31.85
2022-08-20T06:56:09.870Z,31.31
2022-08-20T06:58:38.954Z,30.72
2022-08-20T07:01:09.360Z,33.53
2022-08-20T07:03:38.506Z,32.13
2022-08-20T07:06:07.218Z,32.87
2022-08-20T07:08:36.212Z,32.26
2022-08-20T07:11:04.582Z,30.53
2022-08-20T07:13:36.572Z,31.77
2022-08-20T07:16:05.142Z,31.48
2022-08-20T07:18:33.370Z,30.54
2022-08-20T07:21:01.639Z,30.23
2022-08-20T07:23:31.623Z,29.72
2022-08-20T07:26:00.217Z,29.38
2022-08-20T07:28:29.877Z,29.31
2022-08-20T07:31:17.495Z,30.67
2022-08-20T07:33:50.334Z,29.52
2022-08-20T07:36:19.798Z,29.35
2022-08-20T07:38:51.058Z,30.34
2022-08-20T07:41:20.884Z,29.38
2022-08-20T07:43:49.242Z,29.71
2022-08-20T07:46:20.867Z,29.46
2022-08-20T07:48:50.509Z,28.65
2022-08-20T07:51:20.254Z,28.83
2022-08-20T07:53:49.335Z,30.18
2022-08-20T07:56:19.395Z,28.35
2022-08-20T07:58:50.020Z,27.22
2022-08-20T08:01:20.995Z,26.74
2022-08-20T08:03:50.716Z,26.18
2022-08-20T08:06:29.099Z,25.59
2022-08-20T08:09:00.386Z,25.32
2022-08-20T08:11:28.732Z,25.37
2022-08-20T08:13:56.970Z,26.25
2022-08-20T08:16:26.859Z,26.19
2022-08-20T08:18:56.986Z,27.13
2022-08-20T08:21:26.765Z,26.66
2022-08-20T08:23:55.135Z,26.21
2022-08-20T08:26:23.399Z,26.79
2022-08-20T08:28:51.594Z,26.02
2022-08-20T08:31:19.973Z,24.62
2022-08-20T08:33:49.569Z,24.84
2022-08-20T08:36:17.913Z,26.40
2022-08-20T08:38:46.802Z,25.43
2022-08-20T08:41:19.794Z,25.24
2022-08-20T08:43:49.202Z,25.12
2022-08-20T08:46:22.823Z,24.09
2022-08-20T08:48:54.652Z,23.90
2022-08-20T08:51:25.942Z,23.96
2022-08-20T08:53:55.863Z,24.61
2022-08-20T08:56:25.408Z,24.40
2022-08-20T08:58:55.787Z,24.36
2022-08-20T09:01:53.914Z,24.90
2022-08-20T09:04:15.045Z,25.03
2022-08-20T09:06:43.664Z,25.04
2022-08-20T09:09:18.253Z,24.82
2022-08-20T09:11:47.765Z,25.00
2022-08-20T09:14:16.110Z,24.97
2022-08-20T09:16:52.163Z,24.92
2022-08-20T09:19:23.012Z,26.50
2022-08-20T09:21:51.462Z,26.49
2022-08-20T09:24:19.798Z,25.73
2022-08-20T09:26:48.163Z,26.41
2022-08-20T09:29:16.507Z,26.69
2022-08-20T09:31:45.278Z,26.01
2022-08-20T09:34:14.863Z,26.43
2022-08-20T09:36:44.564Z,26.52
2022-08-20T09:39:12.807Z,26.86
2022-08-20T09:41:41.584Z,27.21
2022-08-20T09:44:09.928Z,28.15
2022-08-20T09:46:38.312Z,26.90
2022-08-20T09:49:06.630Z,27.34
2022-08-20T09:51:38.523Z,28.40
2022-08-20T09:54:08.604Z,28.90
2022-08-20T09:56:37.168Z,28.48
2022-08-20T09:59:05.520Z,30.30
2022-08-20T10:01:35.044Z,29.66
2022-08-20T10:04:03.720Z,28.46
2022-08-20T10:06:37.208Z,28.42
2022-08-20T10:09:06.283Z,27.93
2022-08-20T10:11:35.907Z,30.01
2022-08-20T10:14:04.408Z,28.47
2022-08-20T10:16:33.004Z,28.47
2022-08-20T10:19:01.546Z,28.80
2022-08-20T10:21:32.538Z,30.33
2022-08-20T10:24:02.708Z,30.08
2022-08-20T10:26:30.997Z,30.87
2022-08-20T10:29:00.740Z,29.96
2022-08-20T10:31:28.977Z,30.50
2022-08-20T10:33:57.795Z,30.04
2022-08-20T10:36:26.007Z,30.50
2022-08-20T10:38:54.321Z,31.19
2022-08-20T10:41:22.656Z,30.69
2022-08-20T10:43:51.071Z,29.85
2022-08-20T10:46:20.786Z,31.07
2022-08-20T10:48:49.075Z,30.08
2022-08-20T10:51:17.229Z,30.15
2022-08-20T10:53:45.679Z,31.10
2022-08-20T10:56:15.674Z,31.32
2022-08-20T10:58:44.557Z,30.49
2022-08-20T11:01:12.972Z,31.71
2022-08-20T11:04:01.513Z,32.16
2022-08-20T11:06:29.972Z,32.26
2022-08-20T11:08:58.253Z,32.03
2022-08-20T11:11:26.539Z,31.41
2022-08-20T11:13:54.765Z,31.40
2022-08-20T11:16:23.019Z,31.76
2022-08-20T11:18:51.282Z,30.57
2022-08-20T11:21:21.107Z,29.84
2022-08-20T11:23:49.490Z,30.75
2022-08-20T11:26:22.405Z,30.46
2022-08-20T11:28:50.781Z,30.06
2022-08-20T11:31:19.053Z,29.88
2022-08-20T11:33:47.428Z,28.95
2022-08-20T11:36:41.135Z,28.75
2022-08-20T11:39:10.877Z,30.12
2022-08-20T11:41:39.426Z,30.40
2022-08-20T11:44:21.184Z,29.41
2022-08-20T11:46:49.832Z,28.30
2022-08-20T11:49:18.116Z,27.17
2022-08-20T11:51:50.109Z,26.78
2022-08-20T11:54:20.140Z,27.82
2022-08-20T11:56:49.662Z,28.46
2022-08-20T11:59:18.444Z,27.54
2022-08-20T12:02:02.499Z,27.88
2022-08-20T12:04:33.493Z,28.47
2022-08-20T12:07:08.892Z,27.61
2022-08-20T12:09:40.039Z,28.02
2022-08-20T12:12:19.646Z,27.64
2022-08-20T12:14:47.906Z,27.69
2022-08-20T12:17:19.924Z,27.52
2022-08-20T12:19:48.605Z,27.42
2022-08-20T12:22:17.626Z,26.83
2022-08-20T12:24:54.933Z,25.89
2022-08-20T12:27:24.370Z,26.14
2022-08-20T12:29:53.452Z,26.67
2022-08-20T12:32:22.462Z,26.19
2022-08-20T12:34:51.065Z,27.32
2022-08-20T12:37:20.132Z,26.20
2022-08-20T12:39:50.264Z,25.48
2022-08-20T12:42:20.931Z,25.67
2022-08-20T12:44:49.425Z,26.27
2022-08-20T12:47:18.920Z,26.35
2022-08-20T12:49:48.406Z,25.61
2022-08-20T12:52:17.364Z,26.66
2022-08-20T12:54:45.745Z,26.53
2022-08-20T12:57:17.229Z,25.74
2022-08-20T12:59:46.956Z,26.21
2022-08-20T13:02:18.697Z,27.67
2022-08-20T13:04:47.277Z,27.53
2022-08-20T13:07:15.861Z,27.97
2022-08-20T13:09:44.414Z,26.96
2022-08-20T13:12:14.377Z,26.78
2022-08-20T13:14:42.695Z,26.20
2022-08-20T13:17:12.428Z,27.35
2022-08-20T13:19:41.018Z,26.59
2022-08-20T13:22:09.191Z,26.33
2022-08-20T13:24:37.675Z,28.86
2022-08-20T13:27:07.046Z,27.68
2022-08-20T13:29:35.347Z,27.41
2022-08-20T13:32:03.842Z,26.75
2022-08-20T13:34:33.550Z,27.30
2022-08-20T13:37:01.811Z,28.28
2022-08-20T13:39:30.070Z,27.49
2022-08-20T13:41:58.395Z,28.65
2022-08-20T13:44:28.564Z,27.95
2022-08-20T13:47:01.930Z,28.32
2022-08-20T13:49:33.832Z,28.56
2022-08-20T13:52:04.028Z,29.26
2022-08-20T13:54:32.322Z,28.91
2022-08-20T13:57:06.092Z,28.51
2022-08-20T13:59:36.390Z,28.86
2022-08-20T14:02:07.351Z,28.30
2022-08-20T14:04:36.141Z,27.62
2022-08-20T14:07:13.222Z,27.91
2022-08-20T14:09:41.702Z,28.49
2022-08-20T14:12:10.555Z,29.11
2022-08-20T14:14:38.991Z,28.26
2022-08-20T14:17:19.181Z,27.80
2022-08-20T14:19:48.650Z,27.39
2022-08-20T14:22:18.948Z,27.21
2022-08-20T14:24:52.766Z,27.32
2022-08-20T14:27:25.374Z,28.96
2022-08-20T14:29:58.264Z,28.07
2022-08-20T14:32:26.533Z,27.50
2022-08-20T14:34:54.746Z,26.85
2022-08-20T14:37:25.268Z,26.58
2022-08-20T14:39:54.124Z,26.27
2022-08-20T14:42:23.116Z,26.56
2022-08-20T14:44:51.805Z,26.13
2022-08-20T14:47:21.556Z,26.26
2022-08-20T14:49:51.354Z,26.30
2022-08-20T14:52:20.465Z,26.17
2022-08-20T14:54:50.590Z,26.39
2022-08-20T14:57:20.220Z,25.98
2022-08-20T14:59:53.774Z,25.45
2022-08-20T15:02:22.351Z,25.47
2022-08-20T15:04:54.164Z,25.46
2022-08-20T15:07:25.742Z,24.97
2022-08-20T15:09:55.882Z,25.58
2022-08-20T15:12:24.663Z,25.62
2022-08-20T15:14:52.983Z,25.42
2022-08-20T15:17:21.897Z,25.41
2022-08-20T15:19:50.321Z,25.08
2022-08-20T15:22:18.791Z,25.39
2022-08-20T15:24:46.973Z,25.29
2022-08-20T15:27:22.437Z,25.30
2022-08-20T15:29:51.656Z,25.06
2022-08-20T15:32:20.098Z,25.19
2022-08-20T15:34:48.982Z,25.71
2022-08-20T15:37:18.460Z,25.19
2022-08-20T15:39:47.262Z,25.49
2022-08-20T15:42:17.583Z,25.74
2022-08-20T15:44:46.177Z,25.50
2022-08-20T15:47:25.436Z,25.26
2022-08-20T15:49:55.439Z,25.95
2022-08-20T15:52:24.601Z,25.63
2022-08-20T15:54:55.062Z,25.75
2022-08-20T15:57:34.754Z,26.19
2022-08-20T16:00:10.367Z,25.90
2022-08-20T16:02:46.501Z,26.34
2022-08-20T16:05:29.175Z,26.61
2022-08-20T16:08:05.877Z,26.73
2022-08-20T16:10:40.318Z,26.47
2022-08-20T16:13:13.508Z,26.17
2022-08-20T16:15:49.477Z,26.09
2022-08-20T16:18:21.127Z,26.01
2022-08-20T16:20:52.784Z,25.97
2022-08-20T16:23:24.868Z,26.03
2022-08-20T16:26:01.172Z,26.41
2022-08-20T16:28:36.557Z,26.79
2022-08-20T16:31:06.745Z,26.58
2022-08-20T16:33:38.618Z,26.35
2022-08-20T16:36:11.004Z,26.80
2022-08-20T16:38:41.845Z,26.80
2022-08-20T16:41:13.279Z,26.48
2022-08-20T16:43:46.916Z,26.95
2022-08-20T16:46:17.484Z,27.05
2022-08-20T16:48:49.773Z,26.91
2022-08-20T16:51:19.164Z,27.65
2022-08-20T16:53:47.432Z,27.47
2022-08-20T16:56:15.714Z,27.45
2022-08-20T16:58:47.007Z,27.14
2022-08-20T17:01:16.009Z,27.40
2022-08-20T17:03:50.045Z,27.46
2022-08-20T17:06:20.851Z,27.26
2022-08-20T17:08:50.403Z,27.60
2022-08-20T17:11:25.158Z,26.93
2022-08-20T17:14:03.300Z,27.40
2022-08-20T17:16:34.251Z,28.59
2022-08-20T17:19:09.062Z,28.32
2022-08-20T17:21:39.406Z,27.92
2022-08-20T17:24:16.743Z,27.75
2022-08-20T17:26:46.546Z,28.16
2022-08-20T17:29:18.573Z,28.07
2022-08-20T17:31:47.918Z,28.22
2022-08-20T17:34:17.242Z,28.22
2022-08-20T17:36:54.060Z,29.37
2022-08-20T17:39:23.203Z,28.43
2022-08-20T17:41:53.486Z,28.26
2022-08-20T17:44:25.068Z,28.04
2022-08-20T17:46:54.087Z,28.06
2022-08-20T17:49:32.243Z,28.13
2022-08-20T17:52:01.870Z,28.34
2022-08-20T17:54:33.375Z,28.09
2022-08-20T17:57:04.757Z,27.97
2022-08-20T18:00:01.272Z,28.18
2022-08-20T18:02:25.744Z,28.09
2022-08-20T18:04:55.895Z,27.99
2022-08-20T18:07:26.048Z,28.32
2022-08-20T18:09:58.815Z,27.87
2022-08-20T18:12:34.108Z,28.19
2022-08-20T18:15:09.367Z,27.89
2022-08-20T18:17:51.725Z,27.61
2022-08-20T18:20:26.450Z,27.79
2022-08-20T18:22:57.123Z,27.79
2022-08-20T18:25:30.161Z,27.80
2022-08-20T18:28:03.384Z,27.82
2022-08-20T18:30:33.625Z,28.02
2022-08-20T18:33:04.736Z,28.02
2022-08-20T18:35:34.860Z,27.71
2022-08-20T18:38:13.681Z,27.72
2022-08-20T18:40:42.225Z,27.98
2022-08-20T18:43:14.640Z,28.09
2022-08-20T18:45:44.534Z,27.79
2022-08-20T18:48:21.844Z,28.16
2022-08-20T18:50:55.180Z,28.02
2022-08-20T18:53:30.298Z,27.91
2022-08-20T18:56:02.777Z,27.88
2022-08-20T18:58:32.096Z,27.90
2022-08-20T19:01:03.278Z,28.28
2022-08-20T19:03:33.112Z,28.23
2022-08-20T19:06:08.857Z,28.22
2022-08-20T19:08:42.985Z,27.98
2022-08-20T19:11:22.808Z,27.98
2022-08-20T19:14:12.444Z,28.24
2022-08-20T19:16:45.114Z,27.91
2022-08-20T19:19:15.672Z,28.07
2022-08-20T19:21:44.072Z,28.04
2022-08-20T19:24:15.140Z,27.98
2022-08-20T19:26:45.531Z,28.33
2022-08-20T19:29:17.290Z,28.53
2022-08-20T19:31:47.560Z,28.51
2022-08-20T19:34:19.821Z,28.20
2022-08-20T19:36:54.376Z,27.99
2022-08-20T19:39:25.503Z,28.37
2022-08-20T19:41:57.193Z,28.54
2022-08-20T19:44:27.322Z,28.64
2022-08-20T19:46:57.600Z,28.39
2022-08-20T19:49:28.849Z,29.00
2022-08-20T19:52:03.358Z,28.95
2022-08-20T19:54:32.323Z,28.49
2022-08-20T19:57:05.110Z,28.45
2022-08-20T19:59:33.397Z,28.71
2022-08-20T20:02:04.171Z,28.77
2022-08-20T20:04:54.812Z,28.84
2022-08-20T20:07:25.832Z,28.60
2022-08-20T20:09:55.745Z,28.65
2022-08-20T20:12:24.675Z,28.87
2022-08-20T20:14:54.046Z,28.64
2022-08-20T20:17:24.783Z,28.96
2022-08-20T20:19:56.946Z,28.80
2022-08-20T20:22:27.176Z,28.63
2022-08-20T20:25:01.555Z,28.60
2022-08-20T20:27:32.224Z,28.71
2022-08-20T20:30:01.057Z,29.10
2022-08-20T20:32:34.115Z,29.02
2022-08-20T20:35:04.228Z,28.71
2022-08-20T20:37:49.943Z,28.99
2022-08-20T20:40:25.379Z,29.51
2022-08-20T20:43:05.902Z,28.94
2022-08-20T20:45:35.869Z,29.51
2022-08-20T20:48:15.152Z,29.22
2022-08-20T20:50:43.472Z,29.41
2022-08-20T20:53:12.781Z,29.41
2022-08-20T20:55:42.829Z,29.58
2022-08-20T20:58:11.149Z,29.49
2022-08-20T21:00:39.916Z,29.63
2022-08-20T21:03:08.168Z,29.67
2022-08-20T21:05:37.753Z,29.33
2022-08-20T21:08:07.387Z,29.79
2022-08-20T21:10:37.607Z,30.18
2022-08-20T21:13:08.063Z,29.93
2022-08-20T21:15:37.258Z,29.90
2022-08-20T21:18:06.478Z,29.84
2022-08-20T21:20:34.836Z,30.18
2022-08-20T21:23:05.311Z,30.31
2022-08-20T21:25:34.326Z,29.95
2022-08-20T21:28:02.737Z,29.81
2022-08-20T21:30:31.096Z,29.76
2022-08-20T21:32:59.556Z,29.94
2022-08-20T21:35:28.193Z,29.93
2022-08-20T21:37:56.361Z,29.98
2022-08-20T21:40:28.432Z,29.98
2022-08-20T21:42:57.189Z,30.48
2022-08-20T21:45:28.364Z,30.12
2022-08-20T21:47:57.320Z,30.02
2022-08-20T21:50:25.814Z,30.06
2022-08-20T21:52:59.377Z,30.22
2022-08-20T21:55:33.071Z,29.99
2022-08-20T21:58:05.598Z,30.10
2022-08-20T22:00:48.745Z,30.06
2022-08-20T22:03:20.128Z,30.14
2022-08-20T22:05:48.667Z,30.35
2022-08-20T22:08:16.854Z,30.04
2022-08-20T22:10:46.595Z,30.55
2022-08-20T22:13:15.373Z,30.04
2022-08-20T22:15:43.591Z,30.49
2022-08-20T22:18:11.907Z,30.36
2022-08-20T22:20:40.833Z,31.10
2022-08-20T22:23:09.227Z,31.02
2022-08-20T22:25:37.462Z,30.46
2022-08-20T22:28:07.299Z,30.30
2022-08-20T22:30:38.310Z,30.26
2022-08-20T22:33:11.511Z,30.18
2022-08-20T22:35:41.232Z,30.46
2022-08-20T22:38:09.509Z,30.58
2022-08-20T22:40:37.900Z,30.25
2022-08-20T22:43:07.905Z,30.41
2022-08-20T22:45:36.348Z,30.44
2022-08-20T22:48:05.184Z,30.56
2022-08-20T22:50:33.459Z,30.53
2022-08-20T22:53:02.660Z,30.79
2022-08-20T22:55:30.897Z,30.77
2022-08-20T22:57:59.137Z,30.92
2022-08-20T23:00:28.716Z,31.20
2022-08-20T23:02:58.563Z,30.90
2022-08-20T23:05:28.596Z,31.35
2022-08-20T23:07:57.939Z,31.06
2022-08-20T23:10:26.483Z,31.06
2022-08-20T23:12:55.200Z,31.11
2022-08-20T23:15:23.381Z,31.30
2022-08-20T23:17:53.864Z,30.97
2022-08-20T23:20:22.288Z,31.33
2022-08-20T23:22:54.667Z,31.48
2022-08-20T23:25:23.534Z,31.22
2022-08-20T23:27:54.994Z,31.28
2022-08-20T23:30:24.448Z,31.72
2022-08-20T23:32:54.478Z,31.66
2022-08-20T23:35:22.765Z,31.48
2022-08-20T23:38:00.329Z,31.51
2022-08-20T23:40:29.052Z,31.90
2022-08-20T23:42:58.248Z,31.76
2022-08-20T23:45:26.999Z,31.63
2022-08-20T23:47:56.741Z,31.61
2022-08-20T23:50:26.131Z,32.10
2022-08-20T23:52:54.471Z,31.71
2022-08-20T23:55:23.261Z,31.72
2022-08-20T23:57:54.136Z,32.07
